Time;durP1;ratioP1;P1;durP2;ratioP2;P2;SDS_P1;SDS_P2;PMS_P1;PMS_P2;Temp;Humidity;BMP_temperature;BMP_pressure;BME280_temperature;BME280_humidity;BME280_pressure;Samples;Min_cycle;Max_cycle;Signal;HPM_P1;HPM_P2
2021/07/05 00:02:09;;;;;;;11.87;9.63;;;18.00;99.90;;;;;;5084062;28;20420;-60
2021/07/05 00:04:37;;;;;;;10.60;9.47;;;17.90;99.90;;;;;;5082660;28;20467;-62
2021/07/05 00:07:04;;;;;;;12.37;9.47;;;17.90;99.90;;;;;;5100126;28;20421;-62
2021/07/05 00:09:32;;;;;;;10.40;9.50;;;17.90;99.90;;;;;;5098633;28;20502;-61
2021/07/05 00:11:59;;;;;;;11.57;9.40;;;17.80;99.90;;;;;;5105754;28;20783;-61
2021/07/05 00:14:26;;;;;;;10.47;9.37;;;17.80;99.90;;;;;;5101927;28;20470;-61
2021/07/05 00:16:53;;;;;;;11.10;9.23;;;17.80;99.90;;;;;;5099540;28;20424;-61
2021/07/05 00:19:21;;;;;;;10.40;9.30;;;17.70;99.90;;;;;;5112648;28;20789;-61
2021/07/05 00:21:49;;;;;;;12.57;11.27;;;17.70;99.90;;;;;;5112499;28;20406;-61
2021/07/05 00:24:18;;;;;;;11.87;10.63;;;17.70;99.90;;;;;;5111895;28;20439;-62
2021/07/05 00:26:46;;;;;;;15.13;10.63;;;17.60;99.90;;;;;;5106264;28;20418;-61
2021/07/05 00:29:13;;;;;;;11.53;10.43;;;17.60;99.90;;;;;;5106301;28;20759;-61
2021/07/05 00:31:40;;;;;;;14.70;11.30;;;17.60;99.90;;;;;;5085560;28;20442;-61
2021/07/05 00:34:08;;;;;;;13.93;10.10;;;17.60;99.90;;;;;;5099002;28;20481;-61
2021/07/05 00:36:35;;;;;;;11.83;10.60;;;17.60;99.90;;;;;;5103325;28;20593;-61
2021/07/05 00:39:03;;;;;;;10.97;9.57;;;17.60;99.90;;;;;;5099100;28;20446;-62
2021/07/05 00:41:31;;;;;;;11.50;10.37;;;17.50;99.90;;;;;;5099019;28;20496;-62
2021/07/05 00:43:59;;;;;;;15.17;11.00;;;17.50;99.90;;;;;;5120020;28;20418;-61
2021/07/05 00:46:26;;;;;;;13.70;10.80;;;17.30;99.90;;;;;;5103198;28;20454;-63
2021/07/05 00:48:54;;;;;;;13.83;11.07;;;17.40;99.90;;;;;;5098862;28;20442;-63
2021/07/05 00:51:23;;;;;;;13.93;12.50;;;17.40;99.90;;;;;;5098640;28;20459;-61
2021/07/05 00:53:51;;;;;;;14.10;11.27;;;17.40;99.90;;;;;;5112227;28;20496;-61
2021/07/05 00:56:18;;;;;;;11.53;10.40;;;17.50;99.90;;;;;;5097632;28;20430;-61
2021/07/05 00:58:46;;;;;;;10.50;9.50;;;17.40;99.90;;;;;;5097423;28;20630;-61
2021/07/05 01:01:13;;;;;;;12.20;10.90;;;17.40;99.90;;;;;;5098615;28;20501;-62
2021/07/05 01:03:40;;;;;;;12.40;10.10;;;17.40;99.90;;;;;;5098025;28;20444;-62
2021/07/05 01:06:07;;;;;;;15.63;12.57;;;17.30;99.90;;;;;;5098636;28;20782;-61
2021/07/05 01:08:34;;;;;;;12.63;10.50;;;17.30;99.90;;;;;;5096574;28;20464;-61
2021/07/05 01:11:01;;;;;;;15.63;9.77;;;17.30;99.90;;;;;;5098863;28;20460;-60
2021/07/05 01:13:29;;;;;;;12.50;11.20;;;17.30;99.90;;;;;;5098114;28;20784;-61
2021/07/05 01:15:56;;;;;;;12.33;9.73;;;17.20;99.90;;;;;;5098464;28;20418;-62
2021/07/05 01:18:23;;;;;;;12.20;10.87;;;17.10;99.90;;;;;;5098255;28;20525;-62
2021/07/05 01:20:50;;;;;;;14.27;12.87;;;16.90;99.90;;;;;;5098322;28;20512;-62
2021/07/05 01:23:18;;;;;;;18.30;13.30;;;16.60;99.90;;;;;;5099595;28;20720;-62
2021/07/05 01:25:45;;;;;;;17.93;12.87;;;16.40;99.90;;;;;;5099316;28;20507;-62
2021/07/05 01:28:12;;;;;;;14.88;13.27;;;16.40;99.90;;;;;;5116864;28;20476;-62
2021/07/05 01:30:40;;;;;;;12.80;11.47;;;16.50;99.90;;;;;;5118512;28;20207;-63
2021/07/05 01:33:09;;;;;;;13.10;11.70;;;16.80;99.90;;;;;;5111410;28;20459;-61
2021/07/05 01:35:37;;;;;;;12.00;10.60;;;16.90;99.90;;;;;;5097845;28;20441;-62
2021/07/05 01:38:14;;;;;;;16.17;13.13;;;17.00;99.90;;;;;;5097793;28;20456;-62
2021/07/05 01:40:43;;;;;;;15.93;14.27;;;17.00;99.90;;;;;;5097707;28;20433;-62
2021/07/05 01:43:10;;;;;;;15.07;12.90;;;17.10;99.90;;;;;;5097399;28;20449;-62
2021/07/05 01:45:38;;;;;;;14.05;11.98;;;16.90;99.90;;;;;;5097472;28;20445;-63
2021/07/05 01:48:05;;;;;;;13.77;12.47;;;16.80;99.90;;;;;;5097101;28;20253;-62
2021/07/05 01:50:32;;;;;;;15.80;13.15;;;16.60;99.90;;;;;;5097070;28;20468;-62
2021/07/05 01:52:59;;;;;;;15.23;12.43;;;16.50;99.90;;;;;;5097804;28;20207;-61
2021/07/05 01:55:31;;;;;;;13.60;12.20;;;16.60;99.90;;;;;;5097188;28;20419;-62
2021/07/05 01:58:03;;;;;;;15.30;13.57;;;16.60;99.90;;;;;;5099447;28;20455;-61
2021/07/05 02:00:32;;;;;;;15.30;13.73;;;16.50;99.90;;;;;;5097177;28;20419;-62
2021/07/05 02:03:01;;;;;;;15.63;11.80;;;16.60;99.90;;;;;;5097583;28;20821;-61
2021/07/05 02:05:28;;;;;;;14.95;12.90;;;16.50;99.90;;;;;;5097083;28;20550;-62
2021/07/05 02:07:55;;;;;;;15.98;14.30;;;16.40;99.90;;;;;;5068687;28;20208;-61
2021/07/05 02:10:27;;;;;;;15.43;12.23;;;16.50;99.90;;;;;;5079672;28;20238;-61
2021/07/05 02:12:59;;;;;;;13.40;12.03;;;16.50;99.90;;;;;;5096826;28;20440;-61
2021/07/05 02:15:27;;;;;;;15.43;13.93;;;16.60;99.90;;;;;;5097361;28;20451;-63
2021/07/05 02:17:54;;;;;;;15.47;12.77;;;16.60;99.90;;;;;;5096062;28;20241;-61
2021/07/05 02:20:25;;;;;;;16.83;13.43;;;16.60;99.90;;;;;;5096953;28;20595;-62
2021/07/05 02:22:54;;;;;;;17.70;12.82;;;16.50;99.90;;;;;;5096815;28;20436;-61
2021/07/05 02:25:27;;;;;;;15.75;14.13;;;16.50;99.90;;;;;;5096527;28;20214;-61
2021/07/05 02:28:00;;;;;;;16.30;14.60;;;16.60;99.90;;;;;;5096841;28;20205;-61
2021/07/05 02:30:29;;;;;;;21.55;17.02;;;16.50;99.90;;;;;;5096867;28;20439;-61
2021/07/05 02:32:57;;;;;;;21.00;17.10;;;16.50;99.90;;;;;;5096934;28;20371;-61
2021/07/05 02:35:27;;;;;;;23.80;17.60;;;16.50;99.90;;;;;;5104936;28;20242;-61
2021/07/05 02:37:54;;;;;;;20.48;17.58;;;16.50;99.90;;;;;;5099428;28;20529;-61
2021/07/05 02:40:24;;;;;;;20.77;16.80;;;16.60;99.90;;;;;;5096924;28;20291;-61
2021/07/05 02:42:51;;;;;;;24.08;17.27;;;16.60;99.90;;;;;;5096818;28;20452;-61
2021/07/05 02:45:24;;;;;;;24.30;15.80;;;16.40;99.90;;;;;;5108180;28;20207;-61
2021/07/05 02:48:02;;;;;;;25.23;17.07;;;16.60;99.90;;;;;;5096252;28;20777;-61
2021/07/05 02:50:30;;;;;;;17.05;15.13;;;16.60;99.90;;;;;;5089642;28;20534;-61
2021/07/05 02:52:58;;;;;;;17.30;15.10;;;16.60;99.90;;;;;;5100302;28;20280;-61
2021/07/05 02:55:25;;;;;;;16.10;13.90;;;16.60;99.90;;;;;;5106642;28;20477;-61
2021/07/05 02:57:53;;;;;;;19.08;16.20;;;16.60;99.90;;;;;;5097017;28;20529;-61
2021/07/05 03:00:28;;;;;;;17.30;15.55;;;16.60;99.90;;;;;;5095469;28;20207;-63
2021/07/05 03:02:55;;;;;;;17.70;14.88;;;16.70;99.90;;;;;;5096542;28;20230;-61
2021/07/05 03:05:28;;;;;;;18.23;13.68;;;16.70;99.90;;;;;;5096294;28;20204;-61
2021/07/05 03:07:56;;;;;;;18.15;13.95;;;16.70;99.90;;;;;;5096641;28;20207;-61
2021/07/05 03:10:26;;;;;;;16.38;14.63;;;16.80;99.90;;;;;;5096234;28;20557;-61
2021/07/05 03:12:54;;;;;;;18.38;15.68;;;16.80;99.90;;;;;;5096984;28;20215;-61
2021/07/05 03:15:22;;;;;;;18.20;15.53;;;16.90;99.90;;;;;;5096318;28;20641;-61
2021/07/05 03:17:54;;;;;;;19.73;17.73;;;17.00;99.90;;;;;;5083197;28;20471;-61
2021/07/05 03:20:24;;;;;;;21.73;17.73;;;17.00;99.90;;;;;;5096112;28;20432;-60
2021/07/05 03:22:53;;;;;;;21.03;18.60;;;17.00;99.90;;;;;;5096240;28;20440;-62
2021/07/05 03:25:22;;;;;;;19.48;17.42;;;16.90;99.90;;;;;;5087383;28;20452;-61
2021/07/05 03:27:50;;;;;;;17.23;15.43;;;17.00;99.90;;;;;;5094784;28;20294;-61
2021/07/05 03:30:18;;;;;;;15.83;14.13;;;17.20;99.90;;;;;;5096045;28;20268;-62
2021/07/05 03:32:46;;;;;;;19.37;15.40;;;17.30;99.90;;;;;;5094937;28;20785;-61
2021/07/05 03:35:15;;;;;;;17.67;15.93;;;17.30;99.90;;;;;;5096279;28;20679;-61
2021/07/05 03:37:44;;;;;;;17.63;15.83;;;17.50;99.90;;;;;;5095848;28;20424;-60
2021/07/05 03:40:14;;;;;;;20.57;17.00;;;17.60;99.90;;;;;;5096071;28;20614;-62
2021/07/05 03:42:43;;;;;;;18.13;14.87;;;18.00;99.90;;;;;;5095460;28;20442;-60
2021/07/05 03:45:13;;;;;;;23.80;16.87;;;18.30;99.90;;;;;;5091024;28;20508;-60
2021/07/05 03:47:41;;;;;;;22.43;16.97;;;18.80;99.90;;;;;;5089959;28;20424;-61
2021/07/05 03:50:10;;;;;;;21.87;16.70;;;19.20;99.90;;;;;;5095449;28;20440;-63
2021/07/05 03:52:37;;;;;;;19.03;16.03;;;19.70;99.90;;;;;;5095777;28;20584;-63
2021/07/05 03:55:07;;;;;;;17.23;15.43;;;20.20;99.90;;;;;;5095416;28;20651;-63
2021/07/05 03:57:35;;;;;;;18.40;13.90;;;20.70;99.90;;;;;;5096770;28;20507;-61
2021/07/05 04:00:10;;;;;;;23.00;16.00;;;20.90;99.90;;;;;;5097303;28;20622;-61
2021/07/05 04:02:37;;;;;;;18.50;13.93;;;21.40;99.90;;;;;;5079631;28;20640;-61
2021/07/05 04:05:06;;;;;;;17.03;15.27;;;21.40;99.90;;;;;;5096174;28;20426;-61
2021/07/05 04:07:33;;;;;;;20.90;16.07;;;21.20;99.90;;;;;;5099787;28;20552;-62
2021/07/05 04:10:03;;;;;;;16.47;14.80;;;20.70;99.90;;;;;;5099150;28;20469;-61
2021/07/05 04:12:31;;;;;;;17.63;15.80;;;20.80;99.90;;;;;;5099775;28;20756;-61
2021/07/05 04:14:58;;;;;;;19.43;17.10;;;21.00;99.90;;;;;;5099076;28;20466;-61
2021/07/05 04:17:25;;;;;;;20.13;16.70;;;21.00;99.90;;;;;;5099173;28;20436;-61
2021/07/05 04:19:52;;;;;;;21.97;19.37;;;21.40;99.90;;;;;;5102488;28;20414;-61
2021/07/05 04:22:19;;;;;;;23.90;18.87;;;21.50;99.90;;;;;;5096834;28;20470;-61
2021/07/05 04:24:47;;;;;;;22.67;20.27;;;21.20;99.90;;;;;;5099314;28;20765;-61
2021/07/05 04:27:15;;;;;;;20.10;18.20;;;20.80;99.90;;;;;;5112882;28;20571;-60
2021/07/05 04:29:43;;;;;;;20.13;17.67;;;20.70;99.90;;;;;;5098843;28;20446;-61
2021/07/05 04:32:11;;;;;;;19.57;16.80;;;20.70;99.90;;;;;;5099170;28;20448;-61
2021/07/05 04:34:47;;;;;;;23.17;19.70;;;20.70;99.90;;;;;;5098635;28;20452;-60
2021/07/05 04:37:14;;;;;;;25.17;21.80;;;20.80;99.90;;;;;;5111016;28;20437;-60
2021/07/05 04:39:41;;;;;;;22.73;20.40;;;20.50;99.90;;;;;;5100829;28;20825;-60
2021/07/05 04:42:08;;;;;;;28.20;17.50;;;20.50;99.90;;;;;;5089037;28;20418;-62
2021/07/05 04:44:35;;;;;;;19.47;17.30;;;20.40;99.90;;;;;;5080100;28;20426;-60
2021/07/05 04:47:03;;;;;;;20.07;17.97;;;20.50;99.90;;;;;;5098389;28;20672;-60
2021/07/05 04:49:30;;;;;;;16.30;14.60;;;20.40;99.90;;;;;;5084341;28;20506;-60
2021/07/05 04:51:58;;;;;;;16.73;15.10;;;20.50;99.90;;;;;;5092479;28;20443;-61
2021/07/05 04:54:25;;;;;;;14.33;12.93;;;20.50;99.90;;;;;;5091154;28;20817;-61
2021/07/05 04:56:53;;;;;;;16.50;14.90;;;20.50;99.90;;;;;;5083754;28;20435;-61
2021/07/05 04:59:20;;;;;;;14.33;12.93;;;20.60;99.90;;;;;;5094279;28;20583;-61
2021/07/05 05:01:47;;;;;;;13.13;12.07;;;20.80;99.90;;;;;;5097683;28;20417;-61
2021/07/05 05:04:15;;;;;;;16.23;13.10;;;20.90;99.90;;;;;;5098447;28;20438;-61
2021/07/05 05:06:43;;;;;;;16.63;14.90;;;21.10;99.90;;;;;;5098165;28;20499;-61
2021/07/05 05:09:11;;;;;;;14.10;12.73;;;21.40;99.90;;;;;;5097392;28;20468;-62
2021/07/05 05:11:38;;;;;;;14.90;13.40;;;21.60;99.90;;;;;;5108584;28;20431;-60
2021/07/05 05:14:06;;;;;;;13.60;12.30;;;21.80;99.90;;;;;;5094874;28;20459;-62
2021/07/05 05:16:33;;;;;;;13.17;11.97;;;21.80;99.90;;;;;;5098015;28;20643;-61
2021/07/05 05:19:00;;;;;;;20.03;12.03;;;21.90;99.90;;;;;;5097610;28;20482;-60
2021/07/05 05:21:27;;;;;;;17.13;15.57;;;22.10;99.90;;;;;;5105354;28;20489;-60
2021/07/05 05:23:54;;;;;;;16.90;13.50;;;22.10;99.90;;;;;;5096482;28;20471;-60
2021/07/05 05:26:21;;;;;;;18.50;11.97;;;22.10;99.90;;;;;;5100783;28;20627;-61
2021/07/05 05:28:48;;;;;;;12.47;11.20;;;22.20;99.90;;;;;;5091707;28;20417;-60
2021/07/05 05:31:15;;;;;;;12.60;11.40;;;22.20;99.90;;;;;;5092866;28;20424;-60
2021/07/05 05:33:42;;;;;;;12.10;11.10;;;22.40;99.90;;;;;;5083136;28;20637;-60
2021/07/05 05:36:10;;;;;;;11.97;10.77;;;22.70;99.90;;;;;;5096796;28;20493;-60
2021/07/05 05:38:37;;;;;;;12.60;11.60;;;22.60;99.90;;;;;;5097564;28;20460;-60
2021/07/05 05:41:05;;;;;;;12.67;11.40;;;22.60;99.90;;;;;;5097509;28;20521;-60
2021/07/05 05:43:32;;;;;;;14.37;12.73;;;22.70;99.90;;;;;;5089256;28;20725;-60
2021/07/05 05:46:03;;;;;;;11.60;10.57;;;22.70;99.90;;;;;;5097289;28;20424;-60
2021/07/05 05:48:30;;;;;;;12.40;11.40;;;22.90;99.90;;;;;;5096652;28;20421;-61
2021/07/05 05:50:58;;;;;;;18.87;11.37;;;23.20;99.90;;;;;;5097000;28;21031;-61
2021/07/05 05:53:26;;;;;;;12.40;11.30;;;23.50;99.90;;;;;;5103767;28;20446;-61
2021/07/05 05:55:53;;;;;;;11.77;10.57;;;23.60;99.90;;;;;;5096595;28;20556;-60
2021/07/05 05:58:20;;;;;;;11.37;10.30;;;23.70;99.90;;;;;;5096347;28;20586;-60
2021/07/05 06:00:47;;;;;;;12.17;11.10;;;23.90;99.90;;;;;;5096642;28;20496;-61
2021/07/05 06:03:14;;;;;;;11.77;10.83;;;23.90;99.90;;;;;;5096441;28;20429;-61
2021/07/05 06:05:42;;;;;;;12.70;11.60;;;24.10;99.90;;;;;;5091082;28;20485;-61
2021/07/05 06:08:09;;;;;;;12.70;11.57;;;24.30;99.90;;;;;;5095269;28;20530;-60
2021/07/05 06:10:37;;;;;;;15.93;11.07;;;24.40;99.90;;;;;;5083807;28;20470;-59
2021/07/05 06:13:04;;;;;;;12.50;11.50;;;24.60;99.90;;;;;;5096538;28;20449;-60
2021/07/05 06:15:33;;;;;;;12.47;11.47;;;25.20;99.90;;;;;;5094779;28;20809;-61
2021/07/05 06:18:01;;;;;;;13.63;12.33;;;25.90;99.90;;;;;;5097104;28;20434;-59
2021/07/05 06:20:29;;;;;;;12.37;11.37;;;26.50;98.80;;;;;;5096477;28;20406;-60
2021/07/05 06:23:08;;;;;;;12.70;11.70;;;27.20;97.20;;;;;;5089441;28;20437;-60
2021/07/05 06:25:38;;;;;;;12.10;11.30;;;27.50;96.40;;;;;;5092843;28;20460;-60
2021/07/05 06:28:07;;;;;;;15.13;13.80;;;27.80;96.50;;;;;;5090612;28;20417;-61
2021/07/05 06:30:35;;;;;;;13.97;12.80;;;28.20;94.90;;;;;;5089420;28;20969;-60
2021/07/05 06:33:03;;;;;;;13.23;12.30;;;28.30;94.20;;;;;;5096665;28;20439;-61
2021/07/05 06:35:30;;;;;;;14.20;13.20;;;28.50;93.70;;;;;;5096490;28;20482;-60
2021/07/05 06:37:58;;;;;;;13.00;12.20;;;29.30;92.80;;;;;;5096457;28;20770;-60
2021/07/05 06:40:25;;;;;;;12.60;11.50;;;30.70;90.60;;;;;;5091382;28;20555;-59
2021/07/05 06:42:53;;;;;;;14.30;13.27;;;31.40;88.90;;;;;;5083869;28;20567;-59
2021/07/05 06:45:20;;;;;;;13.90;12.90;;;32.00;85.60;;;;;;5100417;28;20851;-60
2021/07/05 06:47:47;;;;;;;12.63;11.83;;;32.30;82.30;;;;;;5090522;28;20444;-61
2021/07/05 06:50:15;;;;;;;12.40;11.70;;;33.10;79.50;;;;;;5089807;28;20489;-59
2021/07/05 06:52:42;;;;;;;13.30;12.23;;;33.80;75.70;;;;;;5089294;28;20443;-60
2021/07/05 06:55:09;;;;;;;13.00;12.00;;;34.40;72.60;;;;;;5096331;28;20478;-60
2021/07/05 06:57:37;;;;;;;12.93;12.10;;;34.60;71.40;;;;;;5099944;28;20449;-61
2021/07/05 07:00:11;;;;;;;14.20;13.30;;;34.30;68.70;;;;;;5096445;28;20507;-61
2021/07/05 07:02:39;;;;;;;13.90;13.00;;;34.00;68.00;;;;;;5095950;28;20447;-61
2021/07/05 07:05:10;;;;;;;13.97;12.87;;;34.20;67.80;;;;;;5096687;28;20467;-59
2021/07/05 07:07:42;;;;;;;13.93;13.03;;;35.60;64.50;;;;;;5082583;28;20443;-61
2021/07/05 07:10:11;;;;;;;13.57;12.47;;;36.80;60.60;;;;;;5084834;28;21116;-60
2021/07/05 07:12:39;;;;;;;13.07;12.27;;;36.70;59.10;;;;;;5078378;28;20918;-59
2021/07/05 07:15:08;;;;;;;13.67;12.90;;;37.00;58.70;;;;;;5092861;28;20479;-61
2021/07/05 07:17:39;;;;;;;11.63;10.93;;;36.30;58.40;;;;;;5091078;28;20443;-60
2021/07/05 07:20:10;;;;;;;13.97;13.07;;;36.30;58.10;;;;;;5096313;28;20659;-59
2021/07/05 07:22:38;;;;;;;12.53;11.83;;;38.50;54.80;;;;;;5100759;28;20446;-60
2021/07/05 07:25:08;;;;;;;12.73;11.93;;;39.50;51.50;;;;;;5101961;28;20442;-62
2021/07/05 07:27:36;;;;;;;12.23;11.63;;;40.30;49.40;;;;;;5094239;28;20446;-60
2021/07/05 07:30:05;;;;;;;12.57;11.87;;;39.10;49.90;;;;;;5101170;28;20447;-59
2021/07/05 07:32:42;;;;;;;13.10;12.33;;;39.70;49.20;;;;;;5098239;28;20510;-60
2021/07/05 07:35:11;;;;;;;11.30;10.70;;;40.30;47.10;;;;;;5090978;28;20540;-61
2021/07/05 07:37:40;;;;;;;12.80;12.10;;;41.50;44.80;;;;;;5081127;28;20451;-61
2021/07/05 07:40:15;;;;;;;11.40;10.80;;;41.20;44.00;;;;;;5097273;28;20536;-60
2021/07/05 07:42:43;;;;;;;13.40;12.70;;;41.90;42.70;;;;;;5100627;28;20442;-61
2021/07/05 07:45:12;;;;;;;13.70;12.90;;;41.60;42.30;;;;;;5101682;28;20749;-61
2021/07/05 07:47:40;;;;;;;14.00;13.13;;;41.50;42.20;;;;;;5098807;28;20771;-59
2021/07/05 07:50:10;;;;;;;12.83;12.17;;;41.90;41.20;;;;;;5098743;28;20443;-60
2021/07/05 07:52:37;;;;;;;12.10;11.40;;;42.20;40.50;;;;;;5115582;28;20687;-61
2021/07/05 07:55:10;;;;;;;12.20;11.60;;;43.20;38.00;;;;;;5105682;28;20478;-61
2021/07/05 07:57:38;;;;;;;13.17;12.07;;;42.70;37.80;;;;;;5107993;28;20450;-61
2021/07/05 08:00:08;;;;;;;12.40;11.80;;;42.70;37.50;;;;;;5098477;28;20438;-61
2021/07/05 08:02:42;;;;;;;12.60;12.00;;;42.50;38.30;;;;;;5099589;28;20748;-60
2021/07/05 08:05:10;;;;;;;12.57;11.77;;;41.30;39.70;;;;;;5098617;28;20785;-60
2021/07/05 08:07:41;;;;;;;12.03;11.43;;;41.50;39.60;;;;;;5088446;28;20657;-60
2021/07/05 08:10:11;;;;;;;13.37;12.37;;;40.60;41.00;;;;;;5109331;28;20476;-61
2021/07/05 08:12:40;;;;;;;12.87;12.27;;;40.40;41.60;;;;;;5098710;28;20457;-60
2021/07/05 08:15:09;;;;;;;12.57;11.80;;;40.20;41.00;;;;;;5098673;28;20478;-62
2021/07/05 08:17:37;;;;;;;13.00;12.30;;;40.20;41.20;;;;;;5103481;28;20442;-60
2021/07/05 08:20:05;;;;;;;11.90;11.23;;;39.80;42.30;;;;;;5104741;28;20664;-61
2021/07/05 08:22:34;;;;;;;13.50;12.80;;;39.70;42.20;;;;;;5106640;28;20451;-60
2021/07/05 08:25:05;;;;;;;12.63;12.03;;;40.40;41.50;;;;;;5098853;28;20443;-61
2021/07/05 08:27:34;;;;;;;12.37;11.67;;;40.50;40.00;;;;;;5112871;28;20434;-62
2021/07/05 08:30:05;;;;;;;12.33;11.73;;;39.60;41.30;;;;;;5099312;28;20652;-61
2021/07/05 08:32:32;;;;;;;11.50;11.00;;;39.50;42.20;;;;;;5098548;28;20469;-60
2021/07/05 08:35:00;;;;;;;10.60;10.10;;;39.90;41.80;;;;;;5099370;28;20479;-61
2021/07/05 08:37:27;;;;;;;12.97;12.37;;;38.30;42.40;;;;;;5099019;28;20447;-61
2021/07/05 08:39:54;;;;;;;11.37;10.77;;;38.60;43.20;;;;;;5098765;28;20622;-60
2021/07/05 08:42:26;;;;;;;11.17;10.77;;;39.50;42.00;;;;;;5098235;28;20761;-61
2021/07/05 08:44:53;;;;;;;12.43;11.73;;;40.90;40.10;;;;;;5098539;28;20435;-63
2021/07/05 08:47:23;;;;;;;11.67;11.17;;;41.70;39.10;;;;;;5098317;28;20679;-61
2021/07/05 08:49:50;;;;;;;11.33;10.83;;;41.90;38.00;;;;;;5098485;28;20497;-60
2021/07/05 08:52:18;;;;;;;11.80;11.10;;;41.20;38.90;;;;;;5098368;28;20446;-61
2021/07/05 08:54:45;;;;;;;10.40;9.90;;;39.60;40.40;;;;;;5098577;28;20451;-60
2021/07/05 08:57:27;;;;;;;10.57;10.07;;;38.00;41.90;;;;;;5097528;28;20443;-60
2021/07/05 08:59:55;;;;;;;11.20;10.70;;;36.90;43.30;;;;;;5098399;28;20443;-61
2021/07/05 09:02:23;;;;;;;12.20;11.50;;;35.60;46.70;;;;;;5099618;28;20644;-62
2021/07/05 09:04:51;;;;;;;11.53;10.67;;;35.30;47.80;;;;;;5102849;28;20553;-61
2021/07/05 09:07:18;;;;;;;12.40;11.60;;;35.00;48.10;;;;;;5098319;28;20629;-60
2021/07/05 09:10:04;;;;;;;11.30;10.70;;;35.10;48.10;;;;;;5081229;28;20479;-60
2021/07/05 09:12:31;;;;;;;11.30;10.60;;;34.50;48.90;;;;;;5104384;28;20434;-60
2021/07/05 09:15:03;;;;;;;11.27;10.67;;;34.60;49.10;;;;;;5100395;28;20435;-60
2021/07/05 09:17:35;;;;;;;10.23;9.63;;;35.20;47.80;;;;;;5098525;28;20450;-60
2021/07/05 09:20:18;;;;;;;11.17;10.57;;;35.30;47.70;;;;;;5080766;28;20632;-61
2021/07/05 09:23:15;;;;;;;11.43;10.73;;;35.70;47.00;;;;;;5098493;28;20438;-61
2021/07/05 09:25:45;;;;;;;11.47;10.87;;;37.10;46.60;;;;;;5081805;28;20455;-60
2021/07/05 09:28:14;;;;;;;11.53;10.93;;;36.60;47.30;;;;;;5105662;28;20430;-60
2021/07/05 09:30:45;;;;;;;10.80;10.20;;;35.80;48.70;;;;;;5101151;28;20449;-61
2021/07/05 09:33:20;;;;;;;12.40;11.50;;;34.90;50.10;;;;;;5106610;28;20447;-60
2021/07/05 09:35:53;;;;;;;11.10;10.40;;;34.30;50.80;;;;;;5107773;28;20477;-60
2021/07/05 09:38:38;;;;;;;10.77;10.17;;;33.60;53.00;;;;;;5106720;28;20446;-61
2021/07/05 09:41:19;;;;;;;11.27;10.67;;;33.10;54.10;;;;;;5098042;28;20434;-60
2021/07/05 09:43:53;;;;;;;10.23;9.70;;;32.80;54.50;;;;;;5104646;28;20448;-60
2021/07/05 09:46:53;;;;;;;11.27;10.37;;;32.80;54.30;;;;;;5116787;28;20446;-61
2021/07/05 09:49:29;;;;;;;11.80;11.00;;;32.50;54.50;;;;;;5099942;28;20491;-60
2021/07/05 09:52:13;;;;;;;10.97;10.33;;;32.70;54.40;;;;;;5086404;28;20430;-61
2021/07/05 09:54:44;;;;;;;11.70;10.77;;;33.10;53.60;;;;;;5097011;28;20435;-60
2021/07/05 09:57:30;;;;;;;11.93;11.07;;;33.20;53.70;;;;;;5097944;28;20479;-60
2021/07/05 10:00:06;;;;;;;10.77;10.23;;;33.30;53.70;;;;;;5097837;28;20507;-61
2021/07/05 10:02:35;;;;;;;10.87;10.27;;;33.30;53.90;;;;;;5080374;28;20499;-60
2021/07/05 10:05:14;;;;;;;10.20;9.60;;;33.00;54.10;;;;;;5097666;28;20473;-61
2021/07/05 10:07:42;;;;;;;10.23;9.73;;;33.00;54.70;;;;;;5097825;28;20446;-62
2021/07/05 10:10:15;;;;;;;11.50;10.40;;;33.20;53.90;;;;;;5097411;28;20510;-61
2021/07/05 10:13:00;;;;;;;9.60;9.10;;;32.90;54.20;;;;;;5098239;28;20442;-61
2021/07/05 10:15:29;;;;;;;12.80;11.90;;;33.00;53.20;;;;;;5083338;28;20882;-61
2021/07/05 10:17:56;;;;;;;11.47;10.67;;;32.90;54.70;;;;;;5097731;28;20581;-60
2021/07/05 10:20:30;;;;;;;11.60;10.73;;;33.00;54.10;;;;;;5097140;28;20905;-61
2021/07/05 10:23:04;;;;;;;10.60;9.87;;;33.10;53.30;;;;;;5097711;28;20582;-62
2021/07/05 10:25:33;;;;;;;11.07;10.37;;;32.90;54.10;;;;;;5096824;28;20570;-60
2021/07/05 10:28:01;;;;;;;11.50;10.80;;;32.60;52.30;;;;;;5100853;28;20438;-60
2021/07/05 10:30:28;;;;;;;9.33;8.83;;;32.20;54.00;;;;;;5109543;28;20446;-61
2021/07/05 10:32:56;;;;;;;9.70;9.03;;;32.00;53.40;;;;;;5092377;28;20657;-61
2021/07/05 10:35:33;;;;;;;11.10;10.30;;;31.70;53.30;;;;;;5092074;28;20501;-60
2021/07/05 10:38:31;;;;;;;9.00;8.60;;;31.70;51.70;;;;;;5111472;28;20461;-62
2021/07/05 10:41:13;;;;;;;10.30;9.70;;;31.70;50.10;;;;;;5069197;28;20445;-62
2021/07/05 10:43:55;;;;;;;10.13;9.60;;;31.70;53.60;;;;;;5093414;28;20429;-61
2021/07/05 10:46:52;;;;;;;9.87;9.37;;;31.90;55.10;;;;;;5080798;28;20431;-60
2021/07/05 10:49:31;;;;;;;10.77;9.77;;;31.90;53.20;;;;;;5096645;28;20444;-61
2021/07/05 10:52:08;;;;;;;10.60;9.77;;;32.20;52.20;;;;;;5086070;28;20445;-61
2021/07/05 10:54:49;;;;;;;10.00;9.30;;;32.40;52.20;;;;;;5096220;28;20817;-62
2021/07/05 10:57:21;;;;;;;9.40;8.90;;;32.40;52.40;;;;;;5096979;28;20488;-61
2021/07/05 10:59:50;;;;;;;9.37;8.87;;;32.10;52.90;;;;;;5096681;28;20445;-60
2021/07/05 11:02:41;;;;;;;9.40;8.90;;;32.10;52.50;;;;;;5096743;28;20688;-60
2021/07/05 11:05:34;;;;;;;8.70;8.30;;;32.30;52.80;;;;;;5097623;28;20433;-61
2021/07/05 11:08:36;;;;;;;9.90;9.20;;;32.30;51.80;;;;;;5103866;28;20680;-60
2021/07/05 11:11:24;;;;;;;10.30;9.67;;;32.10;51.80;;;;;;5095337;28;20474;-59
2021/07/05 11:14:09;;;;;;;8.87;8.47;;;32.30;52.00;;;;;;5102018;28;20427;-60
2021/07/05 11:17:13;;;;;;;9.30;8.80;;;32.80;51.50;;;;;;5103072;28;20489;-60
2021/07/05 11:19:48;;;;;;;9.50;9.00;;;32.80;50.80;;;;;;5096105;28;20520;-60
2021/07/05 11:22:33;;;;;;;8.10;7.70;;;32.80;50.90;;;;;;5101098;28;20779;-60
2021/07/05 11:25:19;;;;;;;10.17;9.60;;;32.80;50.90;;;;;;5103647;28;20448;-61
2021/07/05 11:27:50;;;;;;;9.07;8.60;;;32.60;51.10;;;;;;5117483;28;20440;-61
2021/07/05 11:30:22;;;;;;;9.23;8.73;;;32.00;51.40;;;;;;5103702;28;20437;-61
2021/07/05 11:32:52;;;;;;;10.30;9.70;;;31.70;52.10;;;;;;5120421;28;20455;-60
2021/07/05 11:35:45;;;;;;;9.87;9.27;;;31.50;52.10;;;;;;5122252;28;20492;-61
2021/07/05 11:38:23;;;;;;;9.33;8.93;;;31.60;52.00;;;;;;5112091;28;20662;-60
2021/07/05 11:40:57;;;;;;;10.50;10.00;;;31.70;51.50;;;;;;5099612;28;20432;-61
2021/07/05 11:43:48;;;;;;;10.50;10.00;;;31.50;51.70;;;;;;5092981;28;20846;-59
2021/07/05 11:46:26;;;;;;;9.77;9.27;;;31.20;52.70;;;;;;5103081;28;20434;-61
2021/07/05 11:48:59;;;;;;;9.90;9.30;;;31.20;53.10;;;;;;5103557;28;20868;-61
2021/07/05 11:51:38;;;;;;;9.40;8.90;;;31.20;53.70;;;;;;5102715;28;20450;-62
2021/07/05 11:54:08;;;;;;;10.47;9.87;;;31.20;55.70;;;;;;5104158;28;20476;-61
2021/07/05 11:56:50;;;;;;;10.07;9.50;;;30.80;56.30;;;;;;5106154;28;20570;-60
2021/07/05 11:59:26;;;;;;;9.70;9.10;;;30.60;57.10;;;;;;5093341;28;20491;-60
2021/07/05 12:02:02;;;;;;;9.47;8.87;;;30.60;57.10;;;;;;5083519;28;20756;-61
2021/07/05 12:04:38;;;;;;;11.07;9.20;;;30.70;57.00;;;;;;5095156;28;20469;-61
2021/07/05 12:07:08;;;;;;;9.40;8.70;;;31.00;56.50;;;;;;5085071;28;20760;-59
2021/07/05 12:09:37;;;;;;;8.20;7.90;;;31.10;56.60;;;;;;5096907;28;20807;-62
2021/07/05 12:12:14;;;;;;;10.10;9.20;;;31.20;56.90;;;;;;5095000;28;20450;-60
2021/07/05 12:14:43;;;;;;;9.53;9.03;;;31.30;56.60;;;;;;5102527;28;20754;-60
2021/07/05 12:17:12;;;;;;;9.90;9.30;;;31.30;56.20;;;;;;5082669;28;20821;-60
2021/07/05 12:19:42;;;;;;;9.47;8.90;;;31.20;56.80;;;;;;5099058;28;20440;-60
2021/07/05 12:22:12;;;;;;;9.60;9.10;;;31.20;56.20;;;;;;5098827;28;20747;-60
2021/07/05 12:24:47;;;;;;;9.23;8.73;;;31.60;55.20;;;;;;5099428;28;20622;-60
2021/07/05 12:27:17;;;;;;;10.90;10.13;;;31.50;54.90;;;;;;5117298;28;20773;-60
2021/07/05 12:29:52;;;;;;;10.13;9.53;;;31.60;55.50;;;;;;5099472;28;20444;-60
2021/07/05 12:32:32;;;;;;;10.07;9.40;;;31.70;54.70;;;;;;5098381;28;20823;-62
2021/07/05 12:35:15;;;;;;;10.30;9.70;;;32.20;54.40;;;;;;5085833;28;20433;-60
2021/07/05 12:37:54;;;;;;;9.80;9.20;;;32.40;53.40;;;;;;5079113;28;20482;-60
2021/07/05 12:40:27;;;;;;;10.63;10.03;;;32.60;53.20;;;;;;5079151;28;20439;-59
2021/07/05 12:42:58;;;;;;;9.70;9.13;;;32.70;52.20;;;;;;5079374;28;20717;-61
2021/07/05 12:45:33;;;;;;;11.23;10.60;;;32.50;51.80;;;;;;5078875;28;20801;-61
2021/07/05 12:48:02;;;;;;;10.80;10.20;;;32.30;52.10;;;;;;5079231;28;20669;-61
2021/07/05 12:50:31;;;;;;;10.53;9.73;;;32.70;52.50;;;;;;5078489;28;20457;-61